Terminal Aerodrome Forecast
Issued by NWS Wakefield, VA

Home | Current Version | Previous Version | Text Only | Print | Product List | Glossary On
Versions: 1 2 3 4 5 6 7 8 9 10 11 12 13 14 15 16 17 18 19 20 21 22
045
FTUS41 KAKQ 261728
TAFRIC
TAF
KRIC 261728Z 2618/2718 27014G24KT P6SM SCT060
     FM262300 29009KT P6SM SCT080
     FM270200 29005KT P6SM SCT150
     FM271300 VRB03KT P6SM SCT100
     FM271600 20005KT P6SM BKN070=

USA.gov is the U.S. government's official web portal to all federal, state and local government web resources and services.